sensor_id;sensor_type;location;lat;lon;timestamp;temperature;humidity
74617;DHT22;63123;50.906;4.198;2023-02-28T00:01:26;16.60;40.30
74617;DHT22;63123;50.906;4.198;2023-02-28T00:03:52;16.70;40.30
74617;DHT22;63123;50.906;4.198;2023-02-28T00:06:18;16.70;40.30
74617;DHT22;63123;50.906;4.198;2023-02-28T00:08:43;16.70;40.20
74617;DHT22;63123;50.906;4.198;2023-02-28T00:11:11;16.70;40.10
74617;DHT22;63123;50.906;4.198;2023-02-28T00:13:40;16.70;40.10
74617;DHT22;63123;50.906;4.198;2023-02-28T00:16:12;16.70;40.30
74617;DHT22;63123;50.906;4.198;2023-02-28T00:18:39;16.70;40.00
74617;DHT22;63123;50.906;4.198;2023-02-28T00:21:05;16.70;40.00
74617;DHT22;63123;50.906;4.198;2023-02-28T00:23:31;16.70;40.20
74617;DHT22;63123;50.906;4.198;2023-02-28T00:25:56;16.70;40.20
74617;DHT22;63123;50.906;4.198;2023-02-28T00:28:22;16.70;40.50
74617;DHT22;63123;50.906;4.198;2023-02-28T00:30:48;16.70;40.20
74617;DHT22;63123;50.906;4.198;2023-02-28T00:33:14;16.70;40.50
74617;DHT22;63123;50.906;4.198;2023-02-28T00:35:40;16.70;40.50
74617;DHT22;63123;50.906;4.198;2023-02-28T00:38:05;16.70;40.30
74617;DHT22;63123;50.906;4.198;2023-02-28T00:40:31;16.70;40.20
74617;DHT22;63123;50.906;4.198;2023-02-28T00:42:57;16.70;40.20
74617;DHT22;63123;50.906;4.198;2023-02-28T00:45:23;16.70;40.40
74617;DHT22;63123;50.906;4.198;2023-02-28T00:47:48;16.60;40.00
74617;DHT22;63123;50.906;4.198;2023-02-28T00:50:17;16.70;40.10
74617;DHT22;63123;50.906;4.198;2023-02-28T00:52:43;16.70;40.30
74617;DHT22;63123;50.906;4.198;2023-02-28T00:55:09;16.70;40.20
74617;DHT22;63123;50.906;4.198;2023-02-28T00:57:35;16.60;40.00
74617;DHT22;63123;50.906;4.198;2023-02-28T01:00:00;16.70;40.20
74617;DHT22;63123;50.906;4.198;2023-02-28T01:02:26;16.70;40.10
74617;DHT22;63123;50.906;4.198;2023-02-28T01:04:52;16.60;40.10
74617;DHT22;63123;50.906;4.198;2023-02-28T01:07:18;16.60;40.20
74617;DHT22;63123;50.906;4.198;2023-02-28T01:09:43;16.60;40.10
74617;DHT22;63123;50.906;4.198;2023-02-28T01:12:09;16.70;40.80
74617;DHT22;63123;50.906;4.198;2023-02-28T01:14:35;16.70;40.00
74617;DHT22;63123;50.906;4.198;2023-02-28T01:17:01;16.60;40.00
74617;DHT22;63123;50.906;4.198;2023-02-28T01:19:27;16.70;39.80
74617;DHT22;63123;50.906;4.198;2023-02-28T01:21:52;16.70;40.20
74617;DHT22;63123;50.906;4.198;2023-02-28T01:24:18;16.70;40.10
74617;DHT22;63123;50.906;4.198;2023-02-28T01:26:44;16.70;40.00
74617;DHT22;63123;50.906;4.198;2023-02-28T01:29:10;16.70;40.00
74617;DHT22;63123;50.906;4.198;2023-02-28T01:31:35;16.70;40.10
74617;DHT22;63123;50.906;4.198;2023-02-28T01:34:01;16.60;40.00
74617;DHT22;63123;50.906;4.198;2023-02-28T01:36:27;16.60;39.90
74617;DHT22;63123;50.906;4.198;2023-02-28T01:38:53;16.70;40.00
74617;DHT22;63123;50.906;4.198;2023-02-28T01:41:27;16.60;40.00
74617;DHT22;63123;50.906;4.198;2023-02-28T01:43:55;16.70;40.20
74617;DHT22;63123;50.906;4.198;2023-02-28T01:46:21;16.60;40.00
74617;DHT22;63123;50.906;4.198;2023-02-28T01:49:01;16.60;40.10
74617;DHT22;63123;50.906;4.198;2023-02-28T01:51:41;16.60;40.00
74617;DHT22;63123;50.906;4.198;2023-02-28T01:54:22;16.60;39.80
74617;DHT22;63123;50.906;4.198;2023-02-28T01:56:55;16.60;40.10
74617;DHT22;63123;50.906;4.198;2023-02-28T01:59:25;16.70;40.10
74617;DHT22;63123;50.906;4.198;2023-02-28T02:01:53;16.60;40.20
74617;DHT22;63123;50.906;4.198;2023-02-28T02:04:19;16.60;40.10
74617;DHT22;63123;50.906;4.198;2023-02-28T02:06:47;16.60;40.10
74617;DHT22;63123;50.906;4.198;2023-02-28T02:09:13;16.60;40.20
74617;DHT22;63123;50.906;4.198;2023-02-28T02:11:41;16.60;39.90
74617;DHT22;63123;50.906;4.198;2023-02-28T02:14:32;16.60;39.90
74617;DHT22;63123;50.906;4.198;2023-02-28T02:28:17;16.60;39.90
74617;DHT22;63123;50.906;4.198;2023-02-28T02:36:37;16.60;39.30
74617;DHT22;63123;50.906;4.198;2023-02-28T02:39:29;16.70;40.10
74617;DHT22;63123;50.906;4.198;2023-02-28T02:42:01;16.60;39.40
74617;DHT22;63123;50.906;4.198;2023-02-28T02:44:34;16.60;40.10
74617;DHT22;63123;50.906;4.198;2023-02-28T02:47:08;16.60;40.00
74617;DHT22;63123;50.906;4.198;2023-02-28T02:49:36;16.60;40.00
74617;DHT22;63123;50.906;4.198;2023-02-28T02:52:06;16.60;40.10
74617;DHT22;63123;50.906;4.198;2023-02-28T02:54:35;16.60;40.00
74617;DHT22;63123;50.906;4.198;2023-02-28T02:57:09;16.60;39.90
74617;DHT22;63123;50.906;4.198;2023-02-28T02:59:40;16.60;40.20
74617;DHT22;63123;50.906;4.198;2023-02-28T03:02:09;16.60;39.90
74617;DHT22;63123;50.906;4.198;2023-02-28T03:04:53;16.60;40.00
74617;DHT22;63123;50.906;4.198;2023-02-28T03:07:26;16.60;39.90
74617;DHT22;63123;50.906;4.198;2023-02-28T03:09:53;16.60;40.00
74617;DHT22;63123;50.906;4.198;2023-02-28T03:12:20;16.60;40.10
74617;DHT22;63123;50.906;4.198;2023-02-28T03:15:21;16.60;40.10
74617;DHT22;63123;50.906;4.198;2023-02-28T03:17:53;16.60;40.10
74617;DHT22;63123;50.906;4.198;2023-02-28T03:20:59;16.60;40.00
74617;DHT22;63123;50.906;4.198;2023-02-28T03:23:36;16.60;39.90
74617;DHT22;63123;50.906;4.198;2023-02-28T03:26:24;16.60;39.60
74617;DHT22;63123;50.906;4.198;2023-02-28T03:29:22;16.60;39.80
74617;DHT22;63123;50.906;4.198;2023-02-28T03:31:57;16.60;39.90
74617;DHT22;63123;50.906;4.198;2023-02-28T03:34:34;16.60;40.00
74617;DHT22;63123;50.906;4.198;2023-02-28T03:37:08;16.70;40.10
74617;DHT22;63123;50.906;4.198;2023-02-28T03:39:41;16.60;39.80
74617;DHT22;63123;50.906;4.198;2023-02-28T03:42:23;16.70;40.10
74617;DHT22;63123;50.906;4.198;2023-02-28T03:44:54;16.60;39.50
74617;DHT22;63123;50.906;4.198;2023-02-28T03:47:32;16.60;40.00
74617;DHT22;63123;50.906;4.198;2023-02-28T03:50:08;16.70;39.90
74617;DHT22;63123;50.906;4.198;2023-02-28T03:52:39;16.60;39.80
74617;DHT22;63123;50.906;4.198;2023-02-28T03:55:11;16.70;40.00
74617;DHT22;63123;50.906;4.198;2023-02-28T03:58:21;16.60;40.10
74617;DHT22;63123;50.906;4.198;2023-02-28T04:00:53;16.70;39.10
74617;DHT22;63123;50.906;4.198;2023-02-28T04:03:20;16.60;40.10
74617;DHT22;63123;50.906;4.198;2023-02-28T04:05:52;16.60;40.10
74617;DHT22;63123;50.906;4.198;2023-02-28T04:08:18;16.70;40.00
74617;DHT22;63123;50.906;4.198;2023-02-28T04:10:48;16.60;39.90
74617;DHT22;63123;50.906;4.198;2023-02-28T04:13:16;16.60;40.00
74617;DHT22;63123;50.906;4.198;2023-02-28T04:15:41;16.60;39.90
74617;DHT22;63123;50.906;4.198;2023-02-28T04:18:07;16.60;40.00
74617;DHT22;63123;50.906;4.198;2023-02-28T04:20:33;16.60;40.20
74617;DHT22;63123;50.906;4.198;2023-02-28T04:22:59;16.60;40.00
74617;DHT22;63123;50.906;4.198;2023-02-28T04:25:24;16.70;40.00
74617;DHT22;63123;50.906;4.198;2023-02-28T04:27:50;16.60;40.30
74617;DHT22;63123;50.906;4.198;2023-02-28T04:30:16;16.60;40.20
74617;DHT22;63123;50.906;4.198;2023-02-28T04:32:41;16.60;40.10
74617;DHT22;63123;50.906;4.198;2023-02-28T04:35:07;16.60;40.10
74617;DHT22;63123;50.906;4.198;2023-02-28T04:37:33;16.60;39.90
74617;DHT22;63123;50.906;4.198;2023-02-28T04:40:00;16.60;40.10
74617;DHT22;63123;50.906;4.198;2023-02-28T04:42:26;16.60;40.00
74617;DHT22;63123;50.906;4.198;2023-02-28T04:44:52;16.60;40.10
74617;DHT22;63123;50.906;4.198;2023-02-28T04:47:17;16.60;39.90
74617;DHT22;63123;50.906;4.198;2023-02-28T04:49:43;16.60;39.90
74617;DHT22;63123;50.906;4.198;2023-02-28T04:52:09;16.60;40.00
74617;DHT22;63123;50.906;4.198;2023-02-28T04:54:35;16.60;40.00
74617;DHT22;63123;50.906;4.198;2023-02-28T04:57:01;16.60;39.90
74617;DHT22;63123;50.906;4.198;2023-02-28T04:59:27;16.60;39.70
74617;DHT22;63123;50.906;4.198;2023-02-28T05:01:52;16.60;40.40
74617;DHT22;63123;50.906;4.198;2023-02-28T05:04:18;16.60;39.90
74617;DHT22;63123;50.906;4.198;2023-02-28T05:06:44;16.60;39.90
74617;DHT22;63123;50.906;4.198;2023-02-28T05:09:09;16.60;39.90
74617;DHT22;63123;50.906;4.198;2023-02-28T05:11:38;16.60;39.90
74617;DHT22;63123;50.906;4.198;2023-02-28T05:14:08;16.60;40.10
74617;DHT22;63123;50.906;4.198;2023-02-28T05:16:35;16.60;40.00
74617;DHT22;63123;50.906;4.198;2023-02-28T05:19:00;16.60;39.90
74617;DHT22;63123;50.906;4.198;2023-02-28T05:21:33;16.60;40.10
74617;DHT22;63123;50.906;4.198;2023-02-28T05:24:25;16.60;40.10
74617;DHT22;63123;50.906;4.198;2023-02-28T05:26:52;16.60;39.30
74617;DHT22;63123;50.906;4.198;2023-02-28T05:29:18;16.60;39.70
74617;DHT22;63123;50.906;4.198;2023-02-28T05:31:44;16.60;39.90
74617;DHT22;63123;50.906;4.198;2023-02-28T05:34:10;16.60;39.80
74617;DHT22;63123;50.906;4.198;2023-02-28T05:36:38;16.60;39.90
74617;DHT22;63123;50.906;4.198;2023-02-28T05:39:05;16.70;39.90
74617;DHT22;63123;50.906;4.198;2023-02-28T05:41:31;16.60;39.90
74617;DHT22;63123;50.906;4.198;2023-02-28T05:43:57;16.70;39.90
74617;DHT22;63123;50.906;4.198;2023-02-28T05:46:25;16.60;40.00
74617;DHT22;63123;50.906;4.198;2023-02-28T05:48:50;16.60;39.90
74617;DHT22;63123;50.906;4.198;2023-02-28T05:51:16;16.60;40.00
74617;DHT22;63123;50.906;4.198;2023-02-28T05:53:43;16.60;40.20
74617;DHT22;63123;50.906;4.198;2023-02-28T05:56:08;16.60;39.90
74617;DHT22;63123;50.906;4.198;2023-02-28T05:58:34;16.60;40.10
74617;DHT22;63123;50.906;4.198;2023-02-28T06:01:00;16.60;40.10
74617;DHT22;63123;50.906;4.198;2023-02-28T06:03:27;16.60;40.00
74617;DHT22;63123;50.906;4.198;2023-02-28T06:05:53;16.60;40.00
74617;DHT22;63123;50.906;4.198;2023-02-28T06:08:18;16.60;40.20
74617;DHT22;63123;50.906;4.198;2023-02-28T06:10:44;16.60;40.00
74617;DHT22;63123;50.906;4.198;2023-02-28T06:13:10;16.60;40.00
74617;DHT22;63123;50.906;4.198;2023-02-28T06:15:38;16.60;40.10
74617;DHT22;63123;50.906;4.198;2023-02-28T06:18:03;16.60;40.10
74617;DHT22;63123;50.906;4.198;2023-02-28T06:20:29;16.70;40.30
74617;DHT22;63123;50.906;4.198;2023-02-28T06:22:56;16.70;40.30
74617;DHT22;63123;50.906;4.198;2023-02-28T06:25:24;16.60;40.30
74617;DHT22;63123;50.906;4.198;2023-02-28T06:27:49;16.60;40.30
74617;DHT22;63123;50.906;4.198;2023-02-28T06:30:15;16.60;40.30
74617;DHT22;63123;50.906;4.198;2023-02-28T06:32:41;16.60;40.30
74617;DHT22;63123;50.906;4.198;2023-02-28T06:35:07;16.60;40.20
74617;DHT22;63123;50.906;4.198;2023-02-28T06:37:32;16.60;40.40
74617;DHT22;63123;50.906;4.198;2023-02-28T06:39:58;16.60;40.30
74617;DHT22;63123;50.906;4.198;2023-02-28T06:42:25;16.60;40.40
74617;DHT22;63123;50.906;4.198;2023-02-28T06:44:55;16.60;40.30
74617;DHT22;63123;50.906;4.198;2023-02-28T06:47:20;16.60;40.30
74617;DHT22;63123;50.906;4.198;2023-02-28T06:49:46;16.60;40.30
74617;DHT22;63123;50.906;4.198;2023-02-28T06:52:12;16.60;40.40
74617;DHT22;63123;50.906;4.198;2023-02-28T06:54:38;16.60;40.50
74617;DHT22;63123;50.906;4.198;2023-02-28T06:57:03;16.60;40.40
74617;DHT22;63123;50.906;4.198;2023-02-28T06:59:30;16.60;40.30
74617;DHT22;63123;50.906;4.198;2023-02-28T07:01:56;16.60;40.30
74617;DHT22;63123;50.906;4.198;2023-02-28T07:04:22;16.60;40.50
74617;DHT22;63123;50.906;4.198;2023-02-28T07:06:47;16.60;40.40
74617;DHT22;63123;50.906;4.198;2023-02-28T07:09:13;16.60;40.50
74617;DHT22;63123;50.906;4.198;2023-02-28T07:11:39;16.60;40.40
74617;DHT22;63123;50.906;4.198;2023-02-28T07:14:06;16.60;40.30
74617;DHT22;63123;50.906;4.198;2023-02-28T07:16:32;16.60;40.50
74617;DHT22;63123;50.906;4.198;2023-02-28T07:18:58;16.70;40.50
74617;DHT22;63123;50.906;4.198;2023-02-28T07:21:24;16.60;40.60
74617;DHT22;63123;50.906;4.198;2023-02-28T07:23:50;16.60;40.50
74617;DHT22;63123;50.906;4.198;2023-02-28T07:26:18;16.70;40.30
74617;DHT22;63123;50.906;4.198;2023-02-28T07:28:45;16.70;40.60
74617;DHT22;63123;50.906;4.198;2023-02-28T07:31:11;16.70;40.60
74617;DHT22;63123;50.906;4.198;2023-02-28T07:33:39;16.70;40.40
74617;DHT22;63123;50.906;4.198;2023-02-28T07:36:07;16.60;40.30
74617;DHT22;63123;50.906;4.198;2023-02-28T07:38:34;16.60;40.60
74617;DHT22;63123;50.906;4.198;2023-02-28T07:41:00;16.70;40.50
74617;DHT22;63123;50.906;4.198;2023-02-28T07:43:30;16.70;40.60
74617;DHT22;63123;50.906;4.198;2023-02-28T07:46:02;16.70;40.70
74617;DHT22;63123;50.906;4.198;2023-02-28T07:48:28;16.70;40.80
74617;DHT22;63123;50.906;4.198;2023-02-28T07:50:57;16.70;40.60
74617;DHT22;63123;50.906;4.198;2023-02-28T07:53:23;16.70;40.60
74617;DHT22;63123;50.906;4.198;2023-02-28T07:55:49;16.70;40.70
74617;DHT22;63123;50.906;4.198;2023-02-28T07:58:14;16.70;40.80
74617;DHT22;63123;50.906;4.198;2023-02-28T08:00:40;16.70;40.70
74617;DHT22;63123;50.906;4.198;2023-02-28T08:03:05;16.70;40.70
74617;DHT22;63123;50.906;4.198;2023-02-28T08:05:31;16.70;40.80
74617;DHT22;63123;50.906;4.198;2023-02-28T08:07:57;16.70;40.90
74617;DHT22;63123;50.906;4.198;2023-02-28T08:10:23;16.70;40.80
74617;DHT22;63123;50.906;4.198;2023-02-28T08:12:49;16.70;40.70
74617;DHT22;63123;50.906;4.198;2023-02-28T08:15:15;16.70;40.90
74617;DHT22;63123;50.906;4.198;2023-02-28T08:17:40;16.70;40.80
74617;DHT22;63123;50.906;4.198;2023-02-28T08:20:07;16.70;40.80
74617;DHT22;63123;50.906;4.198;2023-02-28T08:22:32;16.70;40.70
74617;DHT22;63123;50.906;4.198;2023-02-28T08:24:58;16.70;40.80
74617;DHT22;63123;50.906;4.198;2023-02-28T08:27:23;16.70;40.80
74617;DHT22;63123;50.906;4.198;2023-02-28T08:29:49;16.70;40.80
74617;DHT22;63123;50.906;4.198;2023-02-28T08:32:15;16.70;40.80
74617;DHT22;63123;50.906;4.198;2023-02-28T08:34:40;16.70;40.60
74617;DHT22;63123;50.906;4.198;2023-02-28T08:37:06;16.70;40.80
74617;DHT22;63123;50.906;4.198;2023-02-28T08:39:34;16.70;41.20
74617;DHT22;63123;50.906;4.198;2023-02-28T08:42:01;16.70;41.50
74617;DHT22;63123;50.906;4.198;2023-02-28T08:44:26;16.70;41.70
74617;DHT22;63123;50.906;4.198;2023-02-28T08:46:52;16.70;41.60
74617;DHT22;63123;50.906;4.198;2023-02-28T08:49:18;16.70;41.50
74617;DHT22;63123;50.906;4.198;2023-02-28T08:51:44;16.70;41.70
74617;DHT22;63123;50.906;4.198;2023-02-28T08:54:09;16.70;41.40
74617;DHT22;63123;50.906;4.198;2023-02-28T08:56:37;16.70;41.10
74617;DHT22;63123;50.906;4.198;2023-02-28T08:59:03;16.70;41.50
74617;DHT22;63123;50.906;4.198;2023-02-28T09:01:29;16.70;41.00
74617;DHT22;63123;50.906;4.198;2023-02-28T09:03:56;16.70;41.60
74617;DHT22;63123;50.906;4.198;2023-02-28T09:06:23;16.70;41.20
74617;DHT22;63123;50.906;4.198;2023-02-28T09:08:51;16.70;41.50
74617;DHT22;63123;50.906;4.198;2023-02-28T09:11:17;16.80;41.00
74617;DHT22;63123;50.906;4.198;2023-02-28T09:13:45;16.80;40.70
74617;DHT22;63123;50.906;4.198;2023-02-28T09:16:13;16.80;40.90
74617;DHT22;63123;50.906;4.198;2023-02-28T09:18:39;16.80;40.80
74617;DHT22;63123;50.906;4.198;2023-02-28T09:21:10;16.80;40.50
74617;DHT22;63123;50.906;4.198;2023-02-28T09:23:37;16.80;40.50
74617;DHT22;63123;50.906;4.198;2023-02-28T09:26:05;16.80;40.50
74617;DHT22;63123;50.906;4.198;2023-02-28T09:28:31;16.90;40.50
74617;DHT22;63123;50.906;4.198;2023-02-28T09:30:57;16.80;39.90
74617;DHT22;63123;50.906;4.198;2023-02-28T09:33:24;16.80;40.40
74617;DHT22;63123;50.906;4.198;2023-02-28T09:35:52;16.90;40.40
74617;DHT22;63123;50.906;4.198;2023-02-28T09:38:22;16.90;40.00
74617;DHT22;63123;50.906;4.198;2023-02-28T09:40:54;16.90;40.00
74617;DHT22;63123;50.906;4.198;2023-02-28T09:43:23;16.90;39.80
74617;DHT22;63123;50.906;4.198;2023-02-28T09:45:55;16.90;40.20
74617;DHT22;63123;50.906;4.198;2023-02-28T09:48:32;16.90;39.80
74617;DHT22;63123;50.906;4.198;2023-02-28T09:51:23;16.90;40.50
74617;DHT22;63123;50.906;4.198;2023-02-28T09:53:53;16.90;40.20
74617;DHT22;63123;50.906;4.198;2023-02-28T09:56:38;16.90;40.10
74617;DHT22;63123;50.906;4.198;2023-02-28T09:59:30;17.00;40.00
74617;DHT22;63123;50.906;4.198;2023-02-28T10:04:56;17.00;40.30
74617;DHT22;63123;50.906;4.198;2023-02-28T10:10:28;17.00;40.50
74617;DHT22;63123;50.906;4.198;2023-02-28T10:12:57;17.00;40.70
74617;DHT22;63123;50.906;4.198;2023-02-28T10:15:26;17.10;41.10
74617;DHT22;63123;50.906;4.198;2023-02-28T10:17:58;17.10;41.10
74617;DHT22;63123;50.906;4.198;2023-02-28T10:20:25;17.10;41.10
74617;DHT22;63123;50.906;4.198;2023-02-28T10:23:03;17.10;41.30
74617;DHT22;63123;50.906;4.198;2023-02-28T10:25:34;17.20;41.60
74617;DHT22;63123;50.906;4.198;2023-02-28T10:28:12;17.10;41.10
74617;DHT22;63123;50.906;4.198;2023-02-28T10:30:42;17.10;41.80
74617;DHT22;63123;50.906;4.198;2023-02-28T10:33:18;17.10;41.10
74617;DHT22;63123;50.906;4.198;2023-02-28T10:35:45;17.20;41.90
74617;DHT22;63123;50.906;4.198;2023-02-28T10:38:17;17.20;41.60
74617;DHT22;63123;50.906;4.198;2023-02-28T10:40:42;17.20;41.90
74617;DHT22;63123;50.906;4.198;2023-02-28T10:43:20;17.20;41.70
74617;DHT22;63123;50.906;4.198;2023-02-28T10:46:36;17.20;41.90
74617;DHT22;63123;50.906;4.198;2023-02-28T10:49:01;17.30;42.10
74617;DHT22;63123;50.906;4.198;2023-02-28T10:51:38;17.30;41.80
74617;DHT22;63123;50.906;4.198;2023-02-28T10:54:04;17.20;41.90
74617;DHT22;63123;50.906;4.198;2023-02-28T10:56:31;17.20;41.60
74617;DHT22;63123;50.906;4.198;2023-02-28T10:59:03;17.20;41.80
74617;DHT22;63123;50.906;4.198;2023-02-28T11:03:58;17.20;41.90
74617;DHT22;63123;50.906;4.198;2023-02-28T11:06:29;17.20;41.50
74617;DHT22;63123;50.906;4.198;2023-02-28T11:09:01;17.20;41.20
74617;DHT22;63123;50.906;4.198;2023-02-28T11:11:30;17.10;41.60
74617;DHT22;63123;50.906;4.198;2023-02-28T11:14:25;17.20;41.60
74617;DHT22;63123;50.906;4.198;2023-02-28T11:16:52;17.10;41.40
74617;DHT22;63123;50.906;4.198;2023-02-28T11:19:28;17.10;40.70
74617;DHT22;63123;50.906;4.198;2023-02-28T11:21:59;17.10;41.40
74617;DHT22;63123;50.906;4.198;2023-02-28T11:24:28;17.10;40.80
74617;DHT22;63123;50.906;4.198;2023-02-28T11:26:55;17.10;40.90
74617;DHT22;63123;50.906;4.198;2023-02-28T11:29:24;17.10;41.40
74617;DHT22;63123;50.906;4.198;2023-02-28T11:32:18;17.10;40.80
74617;DHT22;63123;50.906;4.198;2023-02-28T11:34:45;17.00;41.80
74617;DHT22;63123;50.906;4.198;2023-02-28T11:37:28;17.10;41.00
74617;DHT22;63123;50.906;4.198;2023-02-28T11:39:54;17.00;41.00
74617;DHT22;63123;50.906;4.198;2023-02-28T11:48:17;17.00;41.70
74617;DHT22;63123;50.906;4.198;2023-02-28T11:53:21;17.00;40.40
74617;DHT22;63123;50.906;4.198;2023-02-28T12:04:03;17.00;41.10
74617;DHT22;63123;50.906;4.198;2023-02-28T12:07:03;17.00;40.60
74617;DHT22;63123;50.906;4.198;2023-02-28T12:09:52;17.00;40.80
74617;DHT22;63123;50.906;4.198;2023-02-28T12:24:01;17.00;40.40
74617;DHT22;63123;50.906;4.198;2023-02-28T12:29:26;17.00;40.10
74617;DHT22;63123;50.906;4.198;2023-02-28T12:32:05;17.00;39.60
74617;DHT22;63123;50.906;4.198;2023-02-28T12:34:35;17.00;39.70
74617;DHT22;63123;50.906;4.198;2023-02-28T12:37:07;17.00;39.30
74617;DHT22;63123;50.906;4.198;2023-02-28T12:39:40;17.00;38.60
74617;DHT22;63123;50.906;4.198;2023-02-28T12:42:19;17.00;39.00
74617;DHT22;63123;50.906;4.198;2023-02-28T12:44:59;17.00;38.60
74617;DHT22;63123;50.906;4.198;2023-02-28T12:47:26;17.00;38.90
74617;DHT22;63123;50.906;4.198;2023-02-28T12:50:17;17.00;38.50
74617;DHT22;63123;50.906;4.198;2023-02-28T12:53:03;17.00;38.70
74617;DHT22;63123;50.906;4.198;2023-02-28T12:55:42;17.00;38.00
74617;DHT22;63123;50.906;4.198;2023-02-28T13:09:54;17.00;38.30
74617;DHT22;63123;50.906;4.198;2023-02-28T13:12:20;17.00;37.80
74617;DHT22;63123;50.906;4.198;2023-02-28T13:14:49;17.00;38.20
74617;DHT22;63123;50.906;4.198;2023-02-28T13:17:22;17.00;38.10
74617;DHT22;63123;50.906;4.198;2023-02-28T13:22:42;17.00;38.50
74617;DHT22;63123;50.906;4.198;2023-02-28T13:27:48;17.00;37.90
74617;DHT22;63123;50.906;4.198;2023-02-28T13:35:45;17.00;37.40
74617;DHT22;63123;50.906;4.198;2023-02-28T13:38:23;17.00;37.60
74617;DHT22;63123;50.906;4.198;2023-02-28T13:40:49;17.00;37.50
74617;DHT22;63123;50.906;4.198;2023-02-28T13:43:17;17.00;37.60
74617;DHT22;63123;50.906;4.198;2023-02-28T13:46:08;17.00;37.60
74617;DHT22;63123;50.906;4.198;2023-02-28T13:48:35;17.00;37.30
74617;DHT22;63123;50.906;4.198;2023-02-28T13:51:36;17.00;37.40
74617;DHT22;63123;50.906;4.198;2023-02-28T13:54:18;17.00;37.00
74617;DHT22;63123;50.906;4.198;2023-02-28T14:02:40;17.00;37.60
74617;DHT22;63123;50.906;4.198;2023-02-28T14:05:18;17.10;37.70
74617;DHT22;63123;50.906;4.198;2023-02-28T14:07:53;17.00;37.50
74617;DHT22;63123;50.906;4.198;2023-02-28T14:18:21;17.00;37.10
74617;DHT22;63123;50.906;4.198;2023-02-28T14:20:48;17.00;37.30
74617;DHT22;63123;50.906;4.198;2023-02-28T14:23:32;17.00;37.30
74617;DHT22;63123;50.906;4.198;2023-02-28T14:26:05;17.00;37.80
74617;DHT22;63123;50.906;4.198;2023-02-28T14:35:17;17.00;37.00
74617;DHT22;63123;50.906;4.198;2023-02-28T14:37:45;17.00;37.10
74617;DHT22;63123;50.906;4.198;2023-02-28T14:40:32;17.00;37.10
74617;DHT22;63123;50.906;4.198;2023-02-28T14:43:00;17.00;37.20
74617;DHT22;63123;50.906;4.198;2023-02-28T14:45:29;17.00;37.80
74617;DHT22;63123;50.906;4.198;2023-02-28T14:47:57;17.00;36.90
74617;DHT22;63123;50.906;4.198;2023-02-28T14:50:30;17.00;37.20
74617;DHT22;63123;50.906;4.198;2023-02-28T14:52:57;17.00;37.70
74617;DHT22;63123;50.906;4.198;2023-02-28T14:55:27;17.00;37.10
74617;DHT22;63123;50.906;4.198;2023-02-28T14:57:56;17.00;37.60
74617;DHT22;63123;50.906;4.198;2023-02-28T15:00:27;16.90;37.60
74617;DHT22;63123;50.906;4.198;2023-02-28T15:02:55;17.00;36.90
74617;DHT22;63123;50.906;4.198;2023-02-28T15:08:04;17.00;37.40
74617;DHT22;63123;50.906;4.198;2023-02-28T15:10:30;17.00;36.70
74617;DHT22;63123;50.906;4.198;2023-02-28T15:12:59;16.90;37.10
74617;DHT22;63123;50.906;4.198;2023-02-28T15:15:41;16.90;37.20
74617;DHT22;63123;50.906;4.198;2023-02-28T15:18:33;16.90;37.00
74617;DHT22;63123;50.906;4.198;2023-02-28T15:21:07;16.90;37.20
74617;DHT22;63123;50.906;4.198;2023-02-28T15:23:34;16.90;36.90
74617;DHT22;63123;50.906;4.198;2023-02-28T15:26:02;16.90;36.60
74617;DHT22;63123;50.906;4.198;2023-02-28T15:28:28;16.90;36.90
74617;DHT22;63123;50.906;4.198;2023-02-28T15:30:57;16.90;36.80
74617;DHT22;63123;50.906;4.198;2023-02-28T15:33:26;16.90;37.10
74617;DHT22;63123;50.906;4.198;2023-02-28T15:36:13;16.90;37.00
74617;DHT22;63123;50.906;4.198;2023-02-28T15:38:40;16.90;36.70
74617;DHT22;63123;50.906;4.198;2023-02-28T15:41:29;16.90;36.70
74617;DHT22;63123;50.906;4.198;2023-02-28T15:44:24;16.90;36.50
74617;DHT22;63123;50.906;4.198;2023-02-28T15:47:25;16.90;36.50
74617;DHT22;63123;50.906;4.198;2023-02-28T15:49:53;16.90;36.50
74617;DHT22;63123;50.906;4.198;2023-02-28T15:52:38;16.90;37.50
74617;DHT22;63123;50.906;4.198;2023-02-28T15:55:19;16.90;37.40
74617;DHT22;63123;50.906;4.198;2023-02-28T15:57:48;16.90;37.10
74617;DHT22;63123;50.906;4.198;2023-02-28T16:00:19;16.90;38.10
74617;DHT22;63123;50.906;4.198;2023-02-28T16:02:45;16.90;36.90
74617;DHT22;63123;50.906;4.198;2023-02-28T16:07:39;16.90;37.10
74617;DHT22;63123;50.906;4.198;2023-02-28T16:10:09;16.90;37.30
74617;DHT22;63123;50.906;4.198;2023-02-28T16:12:37;16.90;37.00
74617;DHT22;63123;50.906;4.198;2023-02-28T16:15:07;16.90;37.10
74617;DHT22;63123;50.906;4.198;2023-02-28T16:17:35;16.90;37.00
74617;DHT22;63123;50.906;4.198;2023-02-28T16:20:39;16.90;37.10
74617;DHT22;63123;50.906;4.198;2023-02-28T16:22:58;16.90;36.70
74617;DHT22;63123;50.906;4.198;2023-02-28T16:25:36;16.80;37.10
74617;DHT22;63123;50.906;4.198;2023-02-28T16:28:02;16.90;37.10
74617;DHT22;63123;50.906;4.198;2023-02-28T16:30:29;16.90;37.10
74617;DHT22;63123;50.906;4.198;2023-02-28T16:32:58;16.90;37.30
74617;DHT22;63123;50.906;4.198;2023-02-28T16:35:24;16.90;37.40
74617;DHT22;63123;50.906;4.198;2023-02-28T16:37:53;16.90;37.30
74617;DHT22;63123;50.906;4.198;2023-02-28T16:40:22;16.80;37.30
74617;DHT22;63123;50.906;4.198;2023-02-28T16:42:53;16.90;37.60
74617;DHT22;63123;50.906;4.198;2023-02-28T16:45:25;16.80;36.80
74617;DHT22;63123;50.906;4.198;2023-02-28T16:47:51;16.90;37.30
74617;DHT22;63123;50.906;4.198;2023-02-28T16:50:20;16.90;37.40
74617;DHT22;63123;50.906;4.198;2023-02-28T16:52:46;16.90;37.50
74617;DHT22;63123;50.906;4.198;2023-02-28T16:55:12;16.80;38.00
74617;DHT22;63123;50.906;4.198;2023-02-28T16:57:38;16.80;38.20
74617;DHT22;63123;50.906;4.198;2023-02-28T17:00:07;16.90;37.60
74617;DHT22;63123;50.906;4.198;2023-02-28T17:02:34;16.80;37.70
74617;DHT22;63123;50.906;4.198;2023-02-28T17:04:59;16.80;38.20
74617;DHT22;63123;50.906;4.198;2023-02-28T17:07:25;16.80;37.90
74617;DHT22;63123;50.906;4.198;2023-02-28T17:09:51;16.80;37.80
74617;DHT22;63123;50.906;4.198;2023-02-28T17:12:16;16.80;38.60
74617;DHT22;63123;50.906;4.198;2023-02-28T17:14:42;16.80;38.10
74617;DHT22;63123;50.906;4.198;2023-02-28T17:17:13;16.80;37.50
74617;DHT22;63123;50.906;4.198;2023-02-28T17:19:40;16.90;38.10
74617;DHT22;63123;50.906;4.198;2023-02-28T17:22:08;16.80;38.30
74617;DHT22;63123;50.906;4.198;2023-02-28T17:24:34;16.80;37.80
74617;DHT22;63123;50.906;4.198;2023-02-28T17:26:59;16.80;37.90
74617;DHT22;63123;50.906;4.198;2023-02-28T17:29:25;16.80;37.40
74617;DHT22;63123;50.906;4.198;2023-02-28T17:31:51;16.80;38.30
74617;DHT22;63123;50.906;4.198;2023-02-28T17:34:17;16.80;37.70